sensor_id;sensor_type;location;lat;lon;timestamp;P1;durP1;ratioP1;P2;durP2;ratioP2
74799;SDS011;63326;45.088;7.658;2022-12-18T00:01:03;7.07;;;3.15;;
74799;SDS011;63326;45.088;7.658;2022-12-18T00:03:34;6.00;;;3.00;;
74799;SDS011;63326;45.088;7.658;2022-12-18T00:06:02;7.70;;;3.25;;
74799;SDS011;63326;45.088;7.658;2022-12-18T00:08:28;6.82;;;2.78;;
74799;SDS011;63326;45.088;7.658;2022-12-18T00:10:55;7.38;;;3.47;;
74799;SDS011;63326;45.088;7.658;2022-12-18T00:13:26;9.00;;;2.80;;
74799;SDS011;63326;45.088;7.658;2022-12-18T00:15:53;6.68;;;3.05;;
74799;SDS011;63326;45.088;7.658;2022-12-18T00:18:22;8.68;;;3.50;;
74799;SDS011;63326;45.088;7.658;2022-12-18T00:20:48;5.80;;;2.78;;
74799;SDS011;63326;45.088;7.658;2022-12-18T00:23:15;8.25;;;3.03;;
74799;SDS011;63326;45.088;7.658;2022-12-18T00:25:42;7.85;;;3.33;;
74799;SDS011;63326;45.088;7.658;2022-12-18T00:28:09;7.90;;;3.17;;
74799;SDS011;63326;45.088;7.658;2022-12-18T00:30:35;6.40;;;2.55;;
74799;SDS011;63326;45.088;7.658;2022-12-18T00:33:02;7.07;;;3.20;;
74799;SDS011;63326;45.088;7.658;2022-12-18T00:35:28;8.05;;;3.03;;
74799;SDS011;63326;45.088;7.658;2022-12-18T00:37:55;6.65;;;3.13;;
74799;SDS011;63326;45.088;7.658;2022-12-18T00:40:22;6.43;;;2.17;;
74799;SDS011;63326;45.088;7.658;2022-12-18T00:42:48;6.55;;;3.08;;
74799;SDS011;63326;45.088;7.658;2022-12-18T00:45:25;6.65;;;2.53;;
74799;SDS011;63326;45.088;7.658;2022-12-18T00:47:53;6.55;;;3.13;;
74799;SDS011;63326;45.088;7.658;2022-12-18T00:50:39;6.30;;;2.70;;
74799;SDS011;63326;45.088;7.658;2022-12-18T00:53:05;6.63;;;2.85;;
74799;SDS011;63326;45.088;7.658;2022-12-18T00:55:32;4.47;;;2.42;;
74799;SDS011;63326;45.088;7.658;2022-12-18T00:57:59;5.65;;;3.33;;
74799;SDS011;63326;45.088;7.658;2022-12-18T01:00:25;6.07;;;3.33;;
74799;SDS011;63326;45.088;7.658;2022-12-18T01:02:52;7.10;;;2.80;;
74799;SDS011;63326;45.088;7.658;2022-12-18T01:05:19;7.22;;;3.03;;
74799;SDS011;63326;45.088;7.658;2022-12-18T01:07:46;6.88;;;2.97;;
74799;SDS011;63326;45.088;7.658;2022-12-18T01:10:12;6.40;;;2.90;;
74799;SDS011;63326;45.088;7.658;2022-12-18T01:12:39;6.57;;;3.00;;
74799;SDS011;63326;45.088;7.658;2022-12-18T01:15:06;4.50;;;2.10;;
74799;SDS011;63326;45.088;7.658;2022-12-18T01:17:37;7.47;;;2.85;;
74799;SDS011;63326;45.088;7.658;2022-12-18T01:20:04;7.75;;;3.22;;
74799;SDS011;63326;45.088;7.658;2022-12-18T01:22:31;5.43;;;2.42;;
74799;SDS011;63326;45.088;7.658;2022-12-18T01:24:59;6.35;;;3.17;;
74799;SDS011;63326;45.088;7.658;2022-12-18T01:27:25;7.35;;;2.97;;
74799;SDS011;63326;45.088;7.658;2022-12-18T01:29:52;6.97;;;3.08;;
74799;SDS011;63326;45.088;7.658;2022-12-18T01:32:19;5.43;;;2.92;;
74799;SDS011;63326;45.088;7.658;2022-12-18T01:34:45;5.18;;;2.40;;
74799;SDS011;63326;45.088;7.658;2022-12-18T01:37:12;7.07;;;2.53;;
74799;SDS011;63326;45.088;7.658;2022-12-18T01:39:39;9.48;;;2.50;;
74799;SDS011;63326;45.088;7.658;2022-12-18T01:42:10;6.03;;;2.75;;
74799;SDS011;63326;45.088;7.658;2022-12-18T01:52:38;10.15;;;3.47;;
74799;SDS011;63326;45.088;7.658;2022-12-18T01:55:06;9.68;;;3.63;;
74799;SDS011;63326;45.088;7.658;2022-12-18T02:00:03;7.75;;;2.85;;
74799;SDS011;63326;45.088;7.658;2022-12-18T02:02:38;6.93;;;3.20;;
74799;SDS011;63326;45.088;7.658;2022-12-18T02:05:06;5.32;;;2.25;;
74799;SDS011;63326;45.088;7.658;2022-12-18T02:12:42;7.32;;;3.05;;
74799;SDS011;63326;45.088;7.658;2022-12-18T02:17:59;8.82;;;2.90;;
74799;SDS011;63326;45.088;7.658;2022-12-18T02:20:34;5.38;;;3.00;;
74799;SDS011;63326;45.088;7.658;2022-12-18T02:28:51;6.53;;;2.60;;
74799;SDS011;63326;45.088;7.658;2022-12-18T02:31:27;6.70;;;2.75;;
74799;SDS011;63326;45.088;7.658;2022-12-18T02:33:58;5.80;;;3.15;;
74799;SDS011;63326;45.088;7.658;2022-12-18T02:36:30;8.45;;;3.15;;
74799;SDS011;63326;45.088;7.658;2022-12-18T02:38:59;6.70;;;2.95;;
74799;SDS011;63326;45.088;7.658;2022-12-18T02:41:27;6.38;;;2.80;;
74799;SDS011;63326;45.088;7.658;2022-12-18T02:43:56;7.28;;;2.70;;
74799;SDS011;63326;45.088;7.658;2022-12-18T02:46:29;5.90;;;2.55;;
74799;SDS011;63326;45.088;7.658;2022-12-18T02:52:05;5.13;;;2.20;;
74799;SDS011;63326;45.088;7.658;2022-12-18T02:59:56;5.93;;;2.58;;
74799;SDS011;63326;45.088;7.658;2022-12-18T03:02:29;7.38;;;3.08;;
74799;SDS011;63326;45.088;7.658;2022-12-18T03:08:00;7.03;;;2.47;;
74799;SDS011;63326;45.088;7.658;2022-12-18T03:10:39;5.90;;;2.35;;
74799;SDS011;63326;45.088;7.658;2022-12-18T03:13:18;7.80;;;2.55;;
74799;SDS011;63326;45.088;7.658;2022-12-18T03:15:50;7.65;;;2.58;;
74799;SDS011;63326;45.088;7.658;2022-12-18T03:18:20;6.97;;;2.45;;
74799;SDS011;63326;45.088;7.658;2022-12-18T03:20:51;8.00;;;2.58;;
74799;SDS011;63326;45.088;7.658;2022-12-18T03:23:21;6.13;;;2.20;;
74799;SDS011;63326;45.088;7.658;2022-12-18T03:25:52;6.85;;;2.60;;
74799;SDS011;63326;45.088;7.658;2022-12-18T03:28:24;7.63;;;2.88;;
74799;SDS011;63326;45.088;7.658;2022-12-18T03:30:58;5.97;;;2.85;;
74799;SDS011;63326;45.088;7.658;2022-12-18T03:33:29;6.43;;;2.10;;
74799;SDS011;63326;45.088;7.658;2022-12-18T03:35:58;5.63;;;2.90;;
74799;SDS011;63326;45.088;7.658;2022-12-18T03:38:25;6.97;;;3.28;;
74799;SDS011;63326;45.088;7.658;2022-12-18T03:44:12;6.63;;;2.95;;
74799;SDS011;63326;45.088;7.658;2022-12-18T03:52:10;5.13;;;2.53;;
74799;SDS011;63326;45.088;7.658;2022-12-18T03:54:40;5.13;;;2.45;;
74799;SDS011;63326;45.088;7.658;2022-12-18T03:57:19;5.28;;;2.60;;
74799;SDS011;63326;45.088;7.658;2022-12-18T03:59:51;5.40;;;2.40;;
74799;SDS011;63326;45.088;7.658;2022-12-18T04:02:28;5.43;;;2.10;;
74799;SDS011;63326;45.088;7.658;2022-12-18T04:04:58;8.52;;;2.72;;
74799;SDS011;63326;45.088;7.658;2022-12-18T04:07:27;6.25;;;2.67;;
74799;SDS011;63326;45.088;7.658;2022-12-18T04:09:56;6.43;;;2.97;;
74799;SDS011;63326;45.088;7.658;2022-12-18T04:12:26;5.50;;;2.22;;
74799;SDS011;63326;45.088;7.658;2022-12-18T04:14:54;6.28;;;2.92;;
74799;SDS011;63326;45.088;7.658;2022-12-18T04:17:21;5.82;;;2.60;;
74799;SDS011;63326;45.088;7.658;2022-12-18T04:19:48;8.43;;;2.45;;
74799;SDS011;63326;45.088;7.658;2022-12-18T04:22:15;6.82;;;2.67;;
74799;SDS011;63326;45.088;7.658;2022-12-18T04:24:46;6.38;;;2.78;;
74799;SDS011;63326;45.088;7.658;2022-12-18T04:27:21;6.07;;;2.67;;
74799;SDS011;63326;45.088;7.658;2022-12-18T04:29:49;5.63;;;2.13;;
74799;SDS011;63326;45.088;7.658;2022-12-18T04:32:17;5.88;;;2.78;;
74799;SDS011;63326;45.088;7.658;2022-12-18T04:34:44;5.78;;;2.33;;
74799;SDS011;63326;45.088;7.658;2022-12-18T04:37:10;6.25;;;2.15;;
74799;SDS011;63326;45.088;7.658;2022-12-18T04:39:38;6.90;;;2.72;;
74799;SDS011;63326;45.088;7.658;2022-12-18T04:42:10;5.50;;;2.95;;
74799;SDS011;63326;45.088;7.658;2022-12-18T04:44:37;5.88;;;2.47;;
74799;SDS011;63326;45.088;7.658;2022-12-18T04:47:03;5.85;;;2.55;;
74799;SDS011;63326;45.088;7.658;2022-12-18T04:49:30;5.32;;;2.42;;
74799;SDS011;63326;45.088;7.658;2022-12-18T04:51:56;8.07;;;2.90;;
74799;SDS011;63326;45.088;7.658;2022-12-18T04:54:23;5.82;;;3.13;;
74799;SDS011;63326;45.088;7.658;2022-12-18T04:56:50;5.80;;;2.97;;
74799;SDS011;63326;45.088;7.658;2022-12-18T04:59:16;6.22;;;2.35;;
74799;SDS011;63326;45.088;7.658;2022-12-18T05:01:43;7.20;;;2.70;;
74799;SDS011;63326;45.088;7.658;2022-12-18T05:04:10;6.80;;;2.85;;
74799;SDS011;63326;45.088;7.658;2022-12-18T05:06:36;6.88;;;3.10;;
74799;SDS011;63326;45.088;7.658;2022-12-18T05:09:03;6.45;;;2.72;;
74799;SDS011;63326;45.088;7.658;2022-12-18T05:11:31;7.13;;;3.05;;
74799;SDS011;63326;45.088;7.658;2022-12-18T05:13:57;8.25;;;2.53;;
74799;SDS011;63326;45.088;7.658;2022-12-18T05:16:24;6.20;;;3.00;;
74799;SDS011;63326;45.088;7.658;2022-12-18T05:18:51;8.77;;;2.92;;
74799;SDS011;63326;45.088;7.658;2022-12-18T05:21:18;7.43;;;3.22;;
74799;SDS011;63326;45.088;7.658;2022-12-18T05:23:44;5.95;;;2.53;;
74799;SDS011;63326;45.088;7.658;2022-12-18T05:26:14;5.90;;;2.95;;
74799;SDS011;63326;45.088;7.658;2022-12-18T05:28:42;5.93;;;2.50;;
74799;SDS011;63326;45.088;7.658;2022-12-18T05:31:09;6.32;;;2.58;;
74799;SDS011;63326;45.088;7.658;2022-12-18T05:33:36;5.78;;;2.63;;
74799;SDS011;63326;45.088;7.658;2022-12-18T05:36:04;5.95;;;2.53;;
74799;SDS011;63326;45.088;7.658;2022-12-18T05:38:33;7.00;;;2.78;;
74799;SDS011;63326;45.088;7.658;2022-12-18T05:43:27;6.03;;;2.80;;
74799;SDS011;63326;45.088;7.658;2022-12-18T05:45:55;6.55;;;3.10;;
74799;SDS011;63326;45.088;7.658;2022-12-18T05:48:22;5.38;;;2.15;;
74799;SDS011;63326;45.088;7.658;2022-12-18T05:50:49;6.25;;;2.58;;
74799;SDS011;63326;45.088;7.658;2022-12-18T05:53:17;5.55;;;2.40;;
74799;SDS011;63326;45.088;7.658;2022-12-18T05:55:45;7.72;;;3.03;;
74799;SDS011;63326;45.088;7.658;2022-12-18T05:58:13;6.75;;;2.80;;
74799;SDS011;63326;45.088;7.658;2022-12-18T06:00:41;6.13;;;3.05;;
74799;SDS011;63326;45.088;7.658;2022-12-18T06:03:12;5.47;;;2.70;;
74799;SDS011;63326;45.088;7.658;2022-12-18T06:05:40;6.40;;;2.63;;
74799;SDS011;63326;45.088;7.658;2022-12-18T06:08:08;6.50;;;2.78;;
74799;SDS011;63326;45.088;7.658;2022-12-18T06:10:36;7.57;;;3.00;;
74799;SDS011;63326;45.088;7.658;2022-12-18T06:13:03;7.32;;;2.65;;
74799;SDS011;63326;45.088;7.658;2022-12-18T06:15:30;5.82;;;2.90;;
74799;SDS011;63326;45.088;7.658;2022-12-18T06:17:57;6.05;;;2.80;;
74799;SDS011;63326;45.088;7.658;2022-12-18T06:20:23;6.45;;;2.85;;
74799;SDS011;63326;45.088;7.658;2022-12-18T06:22:57;6.75;;;2.85;;
74799;SDS011;63326;45.088;7.658;2022-12-18T06:25:23;6.15;;;2.53;;
74799;SDS011;63326;45.088;7.658;2022-12-18T06:27:50;5.53;;;2.53;;
74799;SDS011;63326;45.088;7.658;2022-12-18T06:30:16;4.97;;;2.40;;
74799;SDS011;63326;45.088;7.658;2022-12-18T06:32:43;7.07;;;2.97;;
74799;SDS011;63326;45.088;7.658;2022-12-18T06:35:13;6.20;;;3.15;;
74799;SDS011;63326;45.088;7.658;2022-12-18T06:37:40;5.05;;;2.25;;
74799;SDS011;63326;45.088;7.658;2022-12-18T06:40:07;7.05;;;2.85;;
74799;SDS011;63326;45.088;7.658;2022-12-18T06:42:33;6.88;;;2.80;;
74799;SDS011;63326;45.088;7.658;2022-12-18T06:45:00;6.35;;;2.65;;
74799;SDS011;63326;45.088;7.658;2022-12-18T06:47:27;5.60;;;2.35;;
74799;SDS011;63326;45.088;7.658;2022-12-18T06:49:53;5.35;;;2.13;;
74799;SDS011;63326;45.088;7.658;2022-12-18T06:52:20;6.55;;;2.65;;
74799;SDS011;63326;45.088;7.658;2022-12-18T06:54:47;7.30;;;3.42;;
74799;SDS011;63326;45.088;7.658;2022-12-18T06:57:13;5.32;;;2.53;;
74799;SDS011;63326;45.088;7.658;2022-12-18T06:59:40;5.50;;;2.28;;
74799;SDS011;63326;45.088;7.658;2022-12-18T07:02:09;6.63;;;2.50;;
74799;SDS011;63326;45.088;7.658;2022-12-18T07:04:37;5.65;;;2.38;;
74799;SDS011;63326;45.088;7.658;2022-12-18T07:07:04;6.72;;;2.80;;
74799;SDS011;63326;45.088;7.658;2022-12-18T07:09:30;4.93;;;2.38;;
74799;SDS011;63326;45.088;7.658;2022-12-18T07:11:57;5.95;;;2.33;;
74799;SDS011;63326;45.088;7.658;2022-12-18T07:14:24;5.80;;;2.33;;
74799;SDS011;63326;45.088;7.658;2022-12-18T07:16:51;5.13;;;2.00;;
74799;SDS011;63326;45.088;7.658;2022-12-18T07:19:18;7.43;;;2.38;;
74799;SDS011;63326;45.088;7.658;2022-12-18T07:21:45;6.47;;;2.90;;
74799;SDS011;63326;45.088;7.658;2022-12-18T07:24:11;5.93;;;2.60;;
74799;SDS011;63326;45.088;7.658;2022-12-18T07:26:38;6.18;;;2.85;;
74799;SDS011;63326;45.088;7.658;2022-12-18T07:29:05;4.57;;;2.10;;
74799;SDS011;63326;45.088;7.658;2022-12-18T07:31:31;4.78;;;2.53;;
74799;SDS011;63326;45.088;7.658;2022-12-18T07:33:58;5.88;;;3.03;;
74799;SDS011;63326;45.088;7.658;2022-12-18T07:36:24;5.43;;;2.13;;
74799;SDS011;63326;45.088;7.658;2022-12-18T07:38:51;5.35;;;2.22;;
74799;SDS011;63326;45.088;7.658;2022-12-18T07:41:19;5.53;;;2.80;;
74799;SDS011;63326;45.088;7.658;2022-12-18T07:43:46;7.93;;;2.60;;
74799;SDS011;63326;45.088;7.658;2022-12-18T07:46:13;6.90;;;2.83;;
74799;SDS011;63326;45.088;7.658;2022-12-18T07:48:41;6.55;;;2.35;;
74799;SDS011;63326;45.088;7.658;2022-12-18T07:51:10;5.45;;;2.42;;
74799;SDS011;63326;45.088;7.658;2022-12-18T07:53:37;6.60;;;2.38;;
74799;SDS011;63326;45.088;7.658;2022-12-18T07:56:05;5.25;;;2.33;;
74799;SDS011;63326;45.088;7.658;2022-12-18T07:58:54;7.93;;;3.28;;
74799;SDS011;63326;45.088;7.658;2022-12-18T08:01:21;8.05;;;2.80;;
74799;SDS011;63326;45.088;7.658;2022-12-18T08:03:48;4.93;;;2.38;;
74799;SDS011;63326;45.088;7.658;2022-12-18T08:06:17;5.43;;;2.50;;
74799;SDS011;63326;45.088;7.658;2022-12-18T08:08:43;7.10;;;2.88;;
74799;SDS011;63326;45.088;7.658;2022-12-18T08:11:10;5.00;;;2.17;;
74799;SDS011;63326;45.088;7.658;2022-12-18T08:13:37;6.68;;;2.53;;
74799;SDS011;63326;45.088;7.658;2022-12-18T08:16:05;6.43;;;2.42;;
74799;SDS011;63326;45.088;7.658;2022-12-18T08:18:33;4.68;;;1.92;;
74799;SDS011;63326;45.088;7.658;2022-12-18T08:21:11;5.70;;;2.20;;
74799;SDS011;63326;45.088;7.658;2022-12-18T08:23:39;6.15;;;2.60;;
74799;SDS011;63326;45.088;7.658;2022-12-18T08:26:09;6.70;;;2.67;;
74799;SDS011;63326;45.088;7.658;2022-12-18T08:28:36;6.07;;;2.22;;
74799;SDS011;63326;45.088;7.658;2022-12-18T08:31:03;6.13;;;2.58;;
74799;SDS011;63326;45.088;7.658;2022-12-18T08:33:31;6.80;;;2.28;;
74799;SDS011;63326;45.088;7.658;2022-12-18T08:35:59;5.65;;;2.58;;
74799;SDS011;63326;45.088;7.658;2022-12-18T08:38:26;6.00;;;2.78;;
74799;SDS011;63326;45.088;7.658;2022-12-18T08:40:59;6.18;;;2.58;;
74799;SDS011;63326;45.088;7.658;2022-12-18T08:43:26;5.22;;;1.92;;
74799;SDS011;63326;45.088;7.658;2022-12-18T08:46:11;6.90;;;2.47;;
74799;SDS011;63326;45.088;7.658;2022-12-18T08:48:41;6.13;;;3.05;;
74799;SDS011;63326;45.088;7.658;2022-12-18T08:51:08;6.75;;;2.47;;
74799;SDS011;63326;45.088;7.658;2022-12-18T08:53:36;6.60;;;2.47;;
74799;SDS011;63326;45.088;7.658;2022-12-18T08:56:04;5.63;;;2.55;;
74799;SDS011;63326;45.088;7.658;2022-12-18T08:58:31;5.25;;;2.28;;
74799;SDS011;63326;45.088;7.658;2022-12-18T09:01:01;7.75;;;2.78;;
74799;SDS011;63326;45.088;7.658;2022-12-18T09:03:29;7.35;;;2.72;;
74799;SDS011;63326;45.088;7.658;2022-12-18T09:05:56;5.25;;;2.83;;
74799;SDS011;63326;45.088;7.658;2022-12-18T09:08:22;5.57;;;2.65;;
74799;SDS011;63326;45.088;7.658;2022-12-18T09:10:49;9.85;;;3.10;;
74799;SDS011;63326;45.088;7.658;2022-12-18T09:13:16;7.50;;;2.83;;
74799;SDS011;63326;45.088;7.658;2022-12-18T09:15:45;10.38;;;3.38;;
74799;SDS011;63326;45.088;7.658;2022-12-18T09:18:15;11.25;;;4.90;;
74799;SDS011;63326;45.088;7.658;2022-12-18T09:23:08;14.85;;;5.45;;
74799;SDS011;63326;45.088;7.658;2022-12-18T09:25:35;8.77;;;4.57;;
74799;SDS011;63326;45.088;7.658;2022-12-18T09:28:03;14.40;;;5.90;;
74799;SDS011;63326;45.088;7.658;2022-12-18T09:30:37;13.88;;;5.40;;
74799;SDS011;63326;45.088;7.658;2022-12-18T09:35:32;16.48;;;5.38;;
74799;SDS011;63326;45.088;7.658;2022-12-18T09:37:59;14.18;;;6.28;;
74799;SDS011;63326;45.088;7.658;2022-12-18T09:40:34;16.08;;;5.32;;
74799;SDS011;63326;45.088;7.658;2022-12-18T09:43:04;14.32;;;4.85;;
74799;SDS011;63326;45.088;7.658;2022-12-18T09:45:38;21.48;;;6.30;;
74799;SDS011;63326;45.088;7.658;2022-12-18T09:48:10;16.27;;;7.22;;
74799;SDS011;63326;45.088;7.658;2022-12-18T09:50:45;16.67;;;6.05;;
74799;SDS011;63326;45.088;7.658;2022-12-18T09:53:15;17.38;;;6.68;;
74799;SDS011;63326;45.088;7.658;2022-12-18T09:55:46;17.00;;;6.75;;
74799;SDS011;63326;45.088;7.658;2022-12-18T10:00:45;19.85;;;5.97;;
74799;SDS011;63326;45.088;7.658;2022-12-18T10:03:13;15.18;;;6.28;;
74799;SDS011;63326;45.088;7.658;2022-12-18T10:10:57;15.82;;;5.82;;
74799;SDS011;63326;45.088;7.658;2022-12-18T10:16:10;16.33;;;6.70;;
74799;SDS011;63326;45.088;7.658;2022-12-18T10:18:57;12.55;;;5.32;;
74799;SDS011;63326;45.088;7.658;2022-12-18T10:24:29;14.90;;;5.68;;
